Pagina principală
METAR-TAF:

METAR-TAF

Aeroporturi :

Alice Springs, Australia

Latitudine: 23-48S, longitudine: 133-53E, elevație: 545 m

Observații meteo curente

Raportul a fost făcut în urmă cu 37 de minute, la 10:00 UTC
Vânt 5 kt de la Nord
Temperatură 16°C
Umiditate 45%
Presiune 1019 hPa
Vizibilitate de 10 km sau mai mult
Total acoperit la o înălțime de 6500 picior
Total acoperit la o înălțime de 7600 picior

METAR: YBAS 261000Z AUTO 35005KT 9999 // OVC065 OVC076 16/04 Q1019

Ora: 20:07 (10:37 UTC)

Prognoză

Raportul a fost făcut în urmă cu 5 ore și 25 de minute, la 05:12 UTC
Prognoză valabilă de la 26 ora 06 UTC la 27 ora 06 UTC
Vânt 8 kt de la Nord-vest
Vizibilitate de 10 km sau mai mult
nu există nori sub 1.500 m și nici cumulonimbus
De la 27 ora 0000 UTC
Vânt 6 kt de la Sud-est
Vizibilitate de 10 km sau mai mult
nu există nori sub 1.500 m și nici cumulonimbus

TAF: YBAS 260512Z 2606/2706 31008KT CAVOK FM270000 14006KT CAVOK

Observații și prognoze meteo pentru peste 4.000 de aeroporturi (rapoarte METAR și TAF).

Stațiile disponibile sunt reprezentate pe hartă prin puncte galbene și roșii.

Țineți indicatorul mouse-ului pe punctul dorit pentru a vedea denumirea stației.

Apoi, faceți clic pentru a vedea observațiile și prognozele meteorologice.

Pentru a schimba harta: Pentru mărire, faceți clic pe butoanele verzi cu cruce neagră; pentru micșorare, pe butonul verde cu o liniuță; pentru hărți învecinate, pe săgețile verzi.


METAR-TAF: